Airfield :
LOGIN :

Register | Disclaimer

   EN    FR    IT 

 










Legend :    VFR   Marginal VFR   IFR   Intensive IFR   Very Intensive IFR
Visi :
Ceiling :
>= 8 km
>= 3000ft
5 to 8 km
1000 to 3000 ft
1500m to 5 km
500 to 1000 ft
800 to 1500m
200 to 500 ft
< 800m
< 200 ft
Symbols :   Thunderstorms  Fog  Heavy snow  Heavy precipitations  Wind > 20 kt
SIGMETs :     Misc.  Thunderstorms  Icing  Turbulence  Mountain Waves  Volcanic Ashes






- Airport Elevation : 433 ft
- IATA code : CCF


LFMK - Carcassonne

CURRENT METAR :
  • 110230Z AUTO VRB02KT CAVOK 01/00 Q1020

EXPIRED METARs :
  • 110200Z AUTO VRB03KT CAVOK 01/01 Q1020
  • 110130Z AUTO VRB02KT CAVOK 01/M00 Q1020
  • 110100Z AUTO VRB02KT CAVOK 01/M00 Q1020
  • 110030Z AUTO 27003KT CAVOK 01/00 Q1021
  • 110000Z AUTO 30003KT CAVOK 01/M00 Q1021

TAF TAF LFMK
Valid from the 11 at 03:00 until the 12 at 03:00 UTC


110200Z 1103/1203 25006KT 9999 BKN090
FM111300 28015G25KT 6000 RA BKN013 OVC030
BECMG 1115/1117 9999 NSW BKN023 OVC040
TEMPO 1119/1203 SHRA SCT023TCU OVC035
TEMPO 1123/1203 28020G35KT



MET'MAP, your aeronautical weather chart ! - Copyright ORBIFLY December 2007 - Disclaimer

ORBIFLY MET'MAP TEAM :

Programming & Development : Alexandra Zaïnal
Concept & original design : Baudouin d'Aumeries
Assistance for programming : Marc-Olivier Méhu
Technical & hardware support : Manuel Goepfert

Contact : metmap@orbifly.com




SOURCES & CREDITS :

   NOAA